sensor_id;sensor_type;location;lat;lon;timestamp;P1;durP1;ratioP1;P2;durP2;ratioP2
52047;SDS011;46904;49.438;8.752;2023-12-20T00:02:16;3.20;;;2.45;;
52047;SDS011;46904;49.438;8.752;2023-12-20T00:04:42;3.47;;;2.70;;
52047;SDS011;46904;49.438;8.752;2023-12-20T00:07:07;3.47;;;2.80;;
52047;SDS011;46904;49.438;8.752;2023-12-20T00:09:33;3.30;;;2.40;;
52047;SDS011;46904;49.438;8.752;2023-12-20T00:11:58;3.35;;;2.42;;
52047;SDS011;46904;49.438;8.752;2023-12-20T00:14:24;2.97;;;2.20;;
52047;SDS011;46904;49.438;8.752;2023-12-20T00:16:49;3.25;;;2.55;;
52047;SDS011;46904;49.438;8.752;2023-12-20T00:19:15;3.67;;;2.92;;
52047;SDS011;46904;49.438;8.752;2023-12-20T00:21:43;3.70;;;2.40;;
52047;SDS011;46904;49.438;8.752;2023-12-20T00:24:09;2.33;;;2.05;;
52047;SDS011;46904;49.438;8.752;2023-12-20T00:26:34;2.35;;;2.13;;
52047;SDS011;46904;49.438;8.752;2023-12-20T00:29:00;3.13;;;2.72;;
52047;SDS011;46904;49.438;8.752;2023-12-20T00:31:25;3.25;;;2.28;;
52047;SDS011;46904;49.438;8.752;2023-12-20T00:33:51;3.65;;;2.60;;
52047;SDS011;46904;49.438;8.752;2023-12-20T00:36:16;2.63;;;2.17;;
52047;SDS011;46904;49.438;8.752;2023-12-20T00:38:42;2.40;;;2.08;;
52047;SDS011;46904;49.438;8.752;2023-12-20T00:41:08;2.85;;;1.67;;
52047;SDS011;46904;49.438;8.752;2023-12-20T00:43:33;2.65;;;2.10;;
52047;SDS011;46904;49.438;8.752;2023-12-20T00:45:59;2.70;;;1.90;;
52047;SDS011;46904;49.438;8.752;2023-12-20T00:48:24;2.60;;;2.10;;
52047;SDS011;46904;49.438;8.752;2023-12-20T00:50:50;1.90;;;1.70;;
52047;SDS011;46904;49.438;8.752;2023-12-20T00:53:15;2.92;;;2.03;;
52047;SDS011;46904;49.438;8.752;2023-12-20T00:55:41;2.67;;;2.25;;
52047;SDS011;46904;49.438;8.752;2023-12-20T00:58:06;2.45;;;2.00;;
52047;SDS011;46904;49.438;8.752;2023-12-20T01:00:32;2.45;;;2.03;;
52047;SDS011;46904;49.438;8.752;2023-12-20T01:02:58;1.70;;;1.60;;
52047;SDS011;46904;49.438;8.752;2023-12-20T01:05:23;1.85;;;1.58;;
52047;SDS011;46904;49.438;8.752;2023-12-20T01:07:49;1.92;;;1.55;;
52047;SDS011;46904;49.438;8.752;2023-12-20T01:10:14;2.10;;;1.63;;
52047;SDS011;46904;49.438;8.752;2023-12-20T01:12:40;1.52;;;1.42;;
52047;SDS011;46904;49.438;8.752;2023-12-20T01:15:06;1.60;;;1.42;;
52047;SDS011;46904;49.438;8.752;2023-12-20T01:17:31;1.90;;;1.70;;
52047;SDS011;46904;49.438;8.752;2023-12-20T01:19:57;2.08;;;1.40;;
52047;SDS011;46904;49.438;8.752;2023-12-20T01:22:22;1.60;;;1.30;;
52047;SDS011;46904;49.438;8.752;2023-12-20T01:24:48;2.25;;;1.48;;
52047;SDS011;46904;49.438;8.752;2023-12-20T01:27:13;1.65;;;1.35;;
52047;SDS011;46904;49.438;8.752;2023-12-20T01:29:39;2.65;;;1.48;;
52047;SDS011;46904;49.438;8.752;2023-12-20T01:32:04;1.70;;;1.50;;
52047;SDS011;46904;49.438;8.752;2023-12-20T01:34:30;1.60;;;1.50;;
52047;SDS011;46904;49.438;8.752;2023-12-20T01:36:56;1.80;;;1.40;;
52047;SDS011;46904;49.438;8.752;2023-12-20T01:39:21;1.30;;;1.20;;
52047;SDS011;46904;49.438;8.752;2023-12-20T01:41:47;2.28;;;1.40;;
52047;SDS011;46904;49.438;8.752;2023-12-20T01:44:13;1.85;;;1.40;;
52047;SDS011;46904;49.438;8.752;2023-12-20T01:46:38;2.85;;;1.70;;
52047;SDS011;46904;49.438;8.752;2023-12-20T01:49:04;1.65;;;1.17;;
52047;SDS011;46904;49.438;8.752;2023-12-20T01:51:30;1.27;;;1.17;;
52047;SDS011;46904;49.438;8.752;2023-12-20T01:53:56;1.30;;;1.20;;
52047;SDS011;46904;49.438;8.752;2023-12-20T01:56:23;1.42;;;1.33;;
52047;SDS011;46904;49.438;8.752;2023-12-20T01:58:48;1.55;;;1.45;;
52047;SDS011;46904;49.438;8.752;2023-12-20T02:01:14;1.83;;;1.27;;
52047;SDS011;46904;49.438;8.752;2023-12-20T02:03:40;1.27;;;1.17;;
52047;SDS011;46904;49.438;8.752;2023-12-20T02:06:07;1.30;;;1.20;;
52047;SDS011;46904;49.438;8.752;2023-12-20T02:08:33;1.30;;;1.10;;
52047;SDS011;46904;49.438;8.752;2023-12-20T02:10:59;1.50;;;1.40;;
52047;SDS011;46904;49.438;8.752;2023-12-20T02:13:25;1.45;;;1.10;;
52047;SDS011;46904;49.438;8.752;2023-12-20T02:15:50;1.55;;;1.40;;
52047;SDS011;46904;49.438;8.752;2023-12-20T02:18:16;2.22;;;1.60;;
52047;SDS011;46904;49.438;8.752;2023-12-20T02:20:41;1.42;;;1.25;;
52047;SDS011;46904;49.438;8.752;2023-12-20T02:23:07;1.90;;;1.40;;
52047;SDS011;46904;49.438;8.752;2023-12-20T02:25:33;1.60;;;1.50;;
52047;SDS011;46904;49.438;8.752;2023-12-20T02:27:58;1.60;;;1.35;;
52047;SDS011;46904;49.438;8.752;2023-12-20T02:30:24;2.65;;;1.88;;
52047;SDS011;46904;49.438;8.752;2023-12-20T02:33:07;1.80;;;1.50;;
52047;SDS011;46904;49.438;8.752;2023-12-20T02:35:33;1.58;;;1.48;;
52047;SDS011;46904;49.438;8.752;2023-12-20T02:37:59;2.13;;;1.60;;
52047;SDS011;46904;49.438;8.752;2023-12-20T02:40:27;1.40;;;1.30;;
52047;SDS011;46904;49.438;8.752;2023-12-20T02:42:53;1.58;;;1.48;;
52047;SDS011;46904;49.438;8.752;2023-12-20T02:45:18;2.58;;;1.80;;
52047;SDS011;46904;49.438;8.752;2023-12-20T02:47:44;1.83;;;1.38;;
52047;SDS011;46904;49.438;8.752;2023-12-20T02:50:09;1.80;;;1.60;;
52047;SDS011;46904;49.438;8.752;2023-12-20T02:52:35;2.13;;;1.60;;
52047;SDS011;46904;49.438;8.752;2023-12-20T02:55:04;2.22;;;1.48;;
52047;SDS011;46904;49.438;8.752;2023-12-20T02:57:29;3.00;;;1.50;;
52047;SDS011;46904;49.438;8.752;2023-12-20T02:59:55;1.77;;;1.45;;
52047;SDS011;46904;49.438;8.752;2023-12-20T03:02:20;1.80;;;1.50;;
52047;SDS011;46904;49.438;8.752;2023-12-20T03:04:46;1.70;;;1.40;;
52047;SDS011;46904;49.438;8.752;2023-12-20T03:07:11;1.77;;;1.55;;
52047;SDS011;46904;49.438;8.752;2023-12-20T03:09:37;2.28;;;1.60;;
52047;SDS011;46904;49.438;8.752;2023-12-20T03:12:03;1.63;;;1.45;;
52047;SDS011;46904;49.438;8.752;2023-12-20T03:14:28;1.65;;;1.48;;
52047;SDS011;46904;49.438;8.752;2023-12-20T03:16:54;1.50;;;1.40;;
52047;SDS011;46904;49.438;8.752;2023-12-20T03:19:19;1.52;;;1.30;;
52047;SDS011;46904;49.438;8.752;2023-12-20T03:21:45;1.30;;;1.20;;
52047;SDS011;46904;49.438;8.752;2023-12-20T03:24:10;1.92;;;1.50;;
52047;SDS011;46904;49.438;8.752;2023-12-20T03:26:36;1.42;;;1.30;;
52047;SDS011;46904;49.438;8.752;2023-12-20T03:29:01;2.30;;;2.10;;
52047;SDS011;46904;49.438;8.752;2023-12-20T03:31:27;1.60;;;1.42;;
52047;SDS011;46904;49.438;8.752;2023-12-20T03:33:53;2.17;;;1.60;;
52047;SDS011;46904;49.438;8.752;2023-12-20T03:36:18;4.10;;;1.50;;
52047;SDS011;46904;49.438;8.752;2023-12-20T03:38:44;1.52;;;1.42;;
52047;SDS011;46904;49.438;8.752;2023-12-20T03:41:09;2.25;;;1.90;;
52047;SDS011;46904;49.438;8.752;2023-12-20T03:43:35;1.70;;;1.60;;
52047;SDS011;46904;49.438;8.752;2023-12-20T03:46:00;2.10;;;1.58;;
52047;SDS011;46904;49.438;8.752;2023-12-20T03:48:26;2.30;;;1.90;;
52047;SDS011;46904;49.438;8.752;2023-12-20T03:50:51;2.63;;;2.15;;
52047;SDS011;46904;49.438;8.752;2023-12-20T03:53:17;2.50;;;2.30;;
52047;SDS011;46904;49.438;8.752;2023-12-20T03:55:42;2.67;;;2.15;;
52047;SDS011;46904;49.438;8.752;2023-12-20T03:58:08;1.80;;;1.50;;
52047;SDS011;46904;49.438;8.752;2023-12-20T04:00:34;1.92;;;1.58;;
52047;SDS011;46904;49.438;8.752;2023-12-20T04:02:59;2.20;;;2.00;;
52047;SDS011;46904;49.438;8.752;2023-12-20T04:05:28;1.92;;;1.60;;
52047;SDS011;46904;49.438;8.752;2023-12-20T04:07:53;3.60;;;1.92;;
52047;SDS011;46904;49.438;8.752;2023-12-20T04:10:19;2.35;;;2.08;;
52047;SDS011;46904;49.438;8.752;2023-12-20T04:12:45;2.13;;;1.90;;
52047;SDS011;46904;49.438;8.752;2023-12-20T04:15:10;2.22;;;2.00;;
52047;SDS011;46904;49.438;8.752;2023-12-20T04:17:36;2.20;;;2.00;;
52047;SDS011;46904;49.438;8.752;2023-12-20T04:20:02;3.50;;;2.55;;
52047;SDS011;46904;49.438;8.752;2023-12-20T04:22:28;2.58;;;2.03;;
52047;SDS011;46904;49.438;8.752;2023-12-20T04:24:54;2.92;;;2.30;;
52047;SDS011;46904;49.438;8.752;2023-12-20T04:27:22;3.40;;;2.58;;
52047;SDS011;46904;49.438;8.752;2023-12-20T04:29:50;2.40;;;2.20;;
52047;SDS011;46904;49.438;8.752;2023-12-20T04:32:16;2.13;;;1.92;;
52047;SDS011;46904;49.438;8.752;2023-12-20T04:34:42;3.67;;;2.55;;
52047;SDS011;46904;49.438;8.752;2023-12-20T04:37:09;2.10;;;1.80;;
52047;SDS011;46904;49.438;8.752;2023-12-20T04:39:38;3.03;;;2.38;;
52047;SDS011;46904;49.438;8.752;2023-12-20T04:42:06;2.70;;;2.30;;
52047;SDS011;46904;49.438;8.752;2023-12-20T04:44:31;2.50;;;2.05;;
52047;SDS011;46904;49.438;8.752;2023-12-20T04:46:57;2.78;;;2.50;;
52047;SDS011;46904;49.438;8.752;2023-12-20T04:49:25;2.60;;;2.05;;
52047;SDS011;46904;49.438;8.752;2023-12-20T04:51:51;2.13;;;2.00;;
52047;SDS011;46904;49.438;8.752;2023-12-20T04:54:18;2.55;;;2.10;;
52047;SDS011;46904;49.438;8.752;2023-12-20T04:56:45;2.40;;;2.20;;
52047;SDS011;46904;49.438;8.752;2023-12-20T04:59:11;2.38;;;2.10;;
52047;SDS011;46904;49.438;8.752;2023-12-20T05:01:39;2.40;;;1.90;;
52047;SDS011;46904;49.438;8.752;2023-12-20T05:04:05;3.15;;;2.33;;
52047;SDS011;46904;49.438;8.752;2023-12-20T05:06:32;1.90;;;1.80;;
52047;SDS011;46904;49.438;8.752;2023-12-20T05:08:59;2.15;;;1.80;;
52047;SDS011;46904;49.438;8.752;2023-12-20T05:11:28;2.60;;;2.40;;
52047;SDS011;46904;49.438;8.752;2023-12-20T05:13:54;2.42;;;2.20;;
52047;SDS011;46904;49.438;8.752;2023-12-20T05:16:22;2.42;;;1.88;;
52047;SDS011;46904;49.438;8.752;2023-12-20T05:18:49;2.50;;;2.30;;
52047;SDS011;46904;49.438;8.752;2023-12-20T05:21:15;3.03;;;2.25;;
52047;SDS011;46904;49.438;8.752;2023-12-20T05:23:40;2.70;;;2.45;;
52047;SDS011;46904;49.438;8.752;2023-12-20T05:26:06;4.80;;;3.70;;
52047;SDS011;46904;49.438;8.752;2023-12-20T05:28:33;3.42;;;3.13;;
52047;SDS011;46904;49.438;8.752;2023-12-20T05:30:59;2.75;;;2.53;;
52047;SDS011;46904;49.438;8.752;2023-12-20T05:33:24;2.65;;;2.20;;
52047;SDS011;46904;49.438;8.752;2023-12-20T05:35:50;3.70;;;2.65;;
52047;SDS011;46904;49.438;8.752;2023-12-20T05:38:15;2.58;;;2.38;;
52047;SDS011;46904;49.438;8.752;2023-12-20T05:40:41;2.83;;;2.50;;
52047;SDS011;46904;49.438;8.752;2023-12-20T05:43:07;2.58;;;2.38;;
52047;SDS011;46904;49.438;8.752;2023-12-20T05:45:32;3.72;;;2.95;;
52047;SDS011;46904;49.438;8.752;2023-12-20T05:47:58;2.80;;;2.50;;
52047;SDS011;46904;49.438;8.752;2023-12-20T05:50:23;2.85;;;2.55;;
52047;SDS011;46904;49.438;8.752;2023-12-20T05:52:49;3.38;;;2.80;;
52047;SDS011;46904;49.438;8.752;2023-12-20T05:55:16;3.55;;;2.65;;
52047;SDS011;46904;49.438;8.752;2023-12-20T05:57:42;4.22;;;3.75;;
52047;SDS011;46904;49.438;8.752;2023-12-20T06:00:07;3.63;;;2.80;;
52047;SDS011;46904;49.438;8.752;2023-12-20T06:02:33;2.95;;;2.65;;
52047;SDS011;46904;49.438;8.752;2023-12-20T06:04:59;2.97;;;2.67;;
52047;SDS011;46904;49.438;8.752;2023-12-20T06:07:24;2.83;;;2.50;;
52047;SDS011;46904;49.438;8.752;2023-12-20T06:09:50;3.50;;;2.78;;
52047;SDS011;46904;49.438;8.752;2023-12-20T06:12:15;3.35;;;2.67;;
52047;SDS011;46904;49.438;8.752;2023-12-20T06:14:41;3.20;;;2.80;;
52047;SDS011;46904;49.438;8.752;2023-12-20T06:17:06;2.70;;;2.47;;
52047;SDS011;46904;49.438;8.752;2023-12-20T06:19:32;3.60;;;3.00;;
52047;SDS011;46904;49.438;8.752;2023-12-20T06:21:57;2.83;;;2.45;;
52047;SDS011;46904;49.438;8.752;2023-12-20T06:24:23;2.30;;;2.10;;
52047;SDS011;46904;49.438;8.752;2023-12-20T06:26:48;2.80;;;2.50;;
52047;SDS011;46904;49.438;8.752;2023-12-20T06:29:14;2.30;;;2.10;;
52047;SDS011;46904;49.438;8.752;2023-12-20T06:31:39;2.20;;;1.90;;
52047;SDS011;46904;49.438;8.752;2023-12-20T06:34:05;2.20;;;1.80;;
52047;SDS011;46904;49.438;8.752;2023-12-20T06:36:32;2.33;;;2.00;;
52047;SDS011;46904;49.438;8.752;2023-12-20T06:38:58;2.33;;;2.13;;
52047;SDS011;46904;49.438;8.752;2023-12-20T06:41:24;3.15;;;1.88;;
52047;SDS011;46904;49.438;8.752;2023-12-20T06:43:49;2.95;;;2.40;;
52047;SDS011;46904;49.438;8.752;2023-12-20T06:46:15;2.38;;;2.05;;
52047;SDS011;46904;49.438;8.752;2023-12-20T06:48:41;2.20;;;2.00;;
52047;SDS011;46904;49.438;8.752;2023-12-20T06:51:10;2.63;;;2.28;;
52047;SDS011;46904;49.438;8.752;2023-12-20T06:53:36;2.90;;;2.60;;
52047;SDS011;46904;49.438;8.752;2023-12-20T06:56:02;3.30;;;2.55;;
52047;SDS011;46904;49.438;8.752;2023-12-20T06:58:28;2.45;;;2.17;;
52047;SDS011;46904;49.438;8.752;2023-12-20T07:00:55;2.80;;;2.50;;
52047;SDS011;46904;49.438;8.752;2023-12-20T07:03:21;3.00;;;2.38;;
52047;SDS011;46904;49.438;8.752;2023-12-20T07:05:46;2.60;;;2.30;;
52047;SDS011;46904;49.438;8.752;2023-12-20T07:08:12;3.00;;;2.40;;
52047;SDS011;46904;49.438;8.752;2023-12-20T07:10:37;2.85;;;2.47;;
52047;SDS011;46904;49.438;8.752;2023-12-20T07:13:03;8.10;;;5.20;;
52047;SDS011;46904;49.438;8.752;2023-12-20T07:15:28;4.70;;;3.70;;
52047;SDS011;46904;49.438;8.752;2023-12-20T07:17:54;4.35;;;3.70;;
52047;SDS011;46904;49.438;8.752;2023-12-20T07:20:19;3.65;;;3.17;;
52047;SDS011;46904;49.438;8.752;2023-12-20T07:22:45;3.30;;;3.00;;
52047;SDS011;46904;49.438;8.752;2023-12-20T07:25:11;3.00;;;2.70;;
52047;SDS011;46904;49.438;8.752;2023-12-20T07:27:36;2.95;;;2.65;;
52047;SDS011;46904;49.438;8.752;2023-12-20T07:30:03;5.03;;;2.90;;
52047;SDS011;46904;49.438;8.752;2023-12-20T07:32:29;3.40;;;2.70;;
52047;SDS011;46904;49.438;8.752;2023-12-20T07:34:55;3.80;;;2.72;;
52047;SDS011;46904;49.438;8.752;2023-12-20T07:37:20;5.25;;;2.80;;
52047;SDS011;46904;49.438;8.752;2023-12-20T07:39:48;3.13;;;2.60;;
52047;SDS011;46904;49.438;8.752;2023-12-20T07:42:16;2.97;;;2.37;;
52047;SDS011;46904;49.438;8.752;2023-12-20T07:44:42;4.53;;;2.85;;
52047;SDS011;46904;49.438;8.752;2023-12-20T07:47:08;3.42;;;2.58;;
52047;SDS011;46904;49.438;8.752;2023-12-20T07:49:34;3.10;;;2.45;;
52047;SDS011;46904;49.438;8.752;2023-12-20T07:52:01;2.55;;;2.20;;
52047;SDS011;46904;49.438;8.752;2023-12-20T07:54:27;3.83;;;2.28;;
52047;SDS011;46904;49.438;8.752;2023-12-20T07:56:53;2.67;;;2.47;;
52047;SDS011;46904;49.438;8.752;2023-12-20T07:59:19;2.60;;;2.10;;
52047;SDS011;46904;49.438;8.752;2023-12-20T08:01:48;2.20;;;2.00;;
52047;SDS011;46904;49.438;8.752;2023-12-20T08:04:16;2.75;;;1.95;;
52047;SDS011;46904;49.438;8.752;2023-12-20T08:06:45;2.35;;;2.00;;
52047;SDS011;46904;49.438;8.752;2023-12-20T08:09:13;2.20;;;2.00;;
52047;SDS011;46904;49.438;8.752;2023-12-20T08:11:44;3.22;;;2.25;;
52047;SDS011;46904;49.438;8.752;2023-12-20T08:14:11;2.55;;;2.35;;
52047;SDS011;46904;49.438;8.752;2023-12-20T08:16:36;2.30;;;2.10;;
52047;SDS011;46904;49.438;8.752;2023-12-20T08:19:04;4.38;;;2.53;;
52047;SDS011;46904;49.438;8.752;2023-12-20T08:21:31;2.75;;;2.15;;
52047;SDS011;46904;49.438;8.752;2023-12-20T08:23:57;2.83;;;2.47;;
52047;SDS011;46904;49.438;8.752;2023-12-20T08:26:24;2.72;;;2.17;;
52047;SDS011;46904;49.438;8.752;2023-12-20T08:28:53;3.10;;;2.13;;
52047;SDS011;46904;49.438;8.752;2023-12-20T08:31:18;2.85;;;2.33;;
52047;SDS011;46904;49.438;8.752;2023-12-20T08:33:44;2.95;;;2.33;;
52047;SDS011;46904;49.438;8.752;2023-12-20T08:36:10;2.83;;;1.80;;
52047;SDS011;46904;49.438;8.752;2023-12-20T08:38:43;2.80;;;2.05;;
52047;SDS011;46904;49.438;8.752;2023-12-20T08:41:09;2.92;;;2.00;;
52047;SDS011;46904;49.438;8.752;2023-12-20T08:43:38;3.03;;;2.30;;
52047;SDS011;46904;49.438;8.752;2023-12-20T08:46:04;3.08;;;2.17;;
52047;SDS011;46904;49.438;8.752;2023-12-20T08:48:30;3.50;;;2.78;;
52047;SDS011;46904;49.438;8.752;2023-12-20T08:50:55;3.60;;;2.80;;
52047;SDS011;46904;49.438;8.752;2023-12-20T08:53:21;3.45;;;2.75;;
52047;SDS011;46904;49.438;8.752;2023-12-20T08:55:47;3.28;;;2.22;;
52047;SDS011;46904;49.438;8.752;2023-12-20T08:58:13;2.25;;;2.00;;
52047;SDS011;46904;49.438;8.752;2023-12-20T09:00:38;3.58;;;2.10;;
52047;SDS011;46904;49.438;8.752;2023-12-20T09:03:04;3.10;;;1.80;;
52047;SDS011;46904;49.438;8.752;2023-12-20T09:05:30;4.28;;;2.00;;
52047;SDS011;46904;49.438;8.752;2023-12-20T09:07:55;4.82;;;2.75;;
52047;SDS011;46904;49.438;8.752;2023-12-20T09:10:21;4.45;;;2.30;;
52047;SDS011;46904;49.438;8.752;2023-12-20T09:12:47;3.03;;;2.05;;
52047;SDS011;46904;49.438;8.752;2023-12-20T09:15:12;4.25;;;2.78;;
52047;SDS011;46904;49.438;8.752;2023-12-20T09:17:38;3.30;;;2.50;;
52047;SDS011;46904;49.438;8.752;2023-12-20T09:20:03;2.88;;;2.35;;
52047;SDS011;46904;49.438;8.752;2023-12-20T09:22:29;3.53;;;1.88;;
52047;SDS011;46904;49.438;8.752;2023-12-20T09:24:54;4.03;;;2.22;;
52047;SDS011;46904;49.438;8.752;2023-12-20T09:27:20;3.35;;;2.08;;
52047;SDS011;46904;49.438;8.752;2023-12-20T09:29:45;4.28;;;2.42;;
52047;SDS011;46904;49.438;8.752;2023-12-20T09:32:11;3.17;;;2.20;;
52047;SDS011;46904;49.438;8.752;2023-12-20T09:34:36;6.43;;;2.20;;
52047;SDS011;46904;49.438;8.752;2023-12-20T09:37:02;2.50;;;2.20;;
52047;SDS011;46904;49.438;8.752;2023-12-20T09:39:28;6.43;;;2.50;;
52047;SDS011;46904;49.438;8.752;2023-12-20T09:42:00;3.25;;;1.92;;
52047;SDS011;46904;49.438;8.752;2023-12-20T09:44:26;3.00;;;2.28;;
52047;SDS011;46904;49.438;8.752;2023-12-20T09:46:51;3.53;;;2.22;;
52047;SDS011;46904;49.438;8.752;2023-12-20T09:49:18;3.20;;;2.35;;
52047;SDS011;46904;49.438;8.752;2023-12-20T09:51:44;4.15;;;2.25;;
52047;SDS011;46904;49.438;8.752;2023-12-20T09:54:11;3.90;;;2.80;;
52047;SDS011;46904;49.438;8.752;2023-12-20T09:56:37;2.35;;;2.10;;
52047;SDS011;46904;49.438;8.752;2023-12-20T09:59:03;3.45;;;2.15;;
52047;SDS011;46904;49.438;8.752;2023-12-20T10:01:28;3.38;;;1.98;;
52047;SDS011;46904;49.438;8.752;2023-12-20T10:03:54;2.95;;;2.20;;
52047;SDS011;46904;49.438;8.752;2023-12-20T10:06:20;2.80;;;1.95;;
52047;SDS011;46904;49.438;8.752;2023-12-20T10:08:46;3.00;;;1.95;;
52047;SDS011;46904;49.438;8.752;2023-12-20T10:11:11;3.22;;;2.10;;
52047;SDS011;46904;49.438;8.752;2023-12-20T10:13:40;2.28;;;1.70;;
52047;SDS011;46904;49.438;8.752;2023-12-20T10:16:06;2.08;;;1.88;;
52047;SDS011;46904;49.438;8.752;2023-12-20T10:18:32;2.70;;;2.10;;
52047;SDS011;46904;49.438;8.752;2023-12-20T10:20:57;3.97;;;2.17;;
52047;SDS011;46904;49.438;8.752;2023-12-20T10:23:23;5.90;;;2.10;;
52047;SDS011;46904;49.438;8.752;2023-12-20T10:25:58;4.47;;;2.00;;
52047;SDS011;46904;49.438;8.752;2023-12-20T10:28:24;4.63;;;2.17;;
52047;SDS011;46904;49.438;8.752;2023-12-20T10:30:49;5.70;;;2.08;;
52047;SDS011;46904;49.438;8.752;2023-12-20T10:33:23;3.58;;;2.25;;
52047;SDS011;46904;49.438;8.752;2023-12-20T10:35:49;2.45;;;1.88;;
52047;SDS011;46904;49.438;8.752;2023-12-20T10:38:14;4.05;;;1.90;;
52047;SDS011;46904;49.438;8.752;2023-12-20T10:40:40;4.80;;;1.60;;
52047;SDS011;46904;49.438;8.752;2023-12-20T10:43:05;3.47;;;1.80;;
52047;SDS011;46904;49.438;8.752;2023-12-20T10:45:31;2.60;;;1.40;;
52047;SDS011;46904;49.438;8.752;2023-12-20T10:47:57;2.60;;;1.90;;
52047;SDS011;46904;49.438;8.752;2023-12-20T10:50:23;2.70;;;1.83;;
52047;SDS011;46904;49.438;8.752;2023-12-20T10:52:48;7.63;;;1.80;;
52047;SDS011;46904;49.438;8.752;2023-12-20T10:55:15;5.45;;;1.95;;
52047;SDS011;46904;49.438;8.752;2023-12-20T10:57:41;2.35;;;1.58;;
52047;SDS011;46904;49.438;8.752;2023-12-20T11:00:08;3.67;;;1.95;;
52047;SDS011;46904;49.438;8.752;2023-12-20T11:02:33;2.20;;;1.48;;
52047;SDS011;46904;49.438;8.752;2023-12-20T11:05:06;4.47;;;2.00;;
52047;SDS011;46904;49.438;8.752;2023-12-20T11:07:33;2.55;;;1.60;;
52047;SDS011;46904;49.438;8.752;2023-12-20T11:10:00;5.22;;;1.85;;
52047;SDS011;46904;49.438;8.752;2023-12-20T11:12:32;4.95;;;1.70;;
52047;SDS011;46904;49.438;8.752;2023-12-20T11:14:59;3.80;;;1.77;;
52047;SDS011;46904;49.438;8.752;2023-12-20T11:17:26;2.22;;;1.58;;
52047;SDS011;46904;49.438;8.752;2023-12-20T11:22:17;5.25;;;1.90;;
52047;SDS011;46904;49.438;8.752;2023-12-20T11:24:44;1.80;;;1.48;;
52047;SDS011;46904;49.438;8.752;2023-12-20T11:27:09;2.58;;;1.90;;
52047;SDS011;46904;49.438;8.752;2023-12-20T11:29:35;2.92;;;1.90;;
52047;SDS011;46904;49.438;8.752;2023-12-20T11:32:01;4.03;;;1.50;;
52047;SDS011;46904;49.438;8.752;2023-12-20T11:34:28;4.25;;;2.33;;
52047;SDS011;46904;49.438;8.752;2023-12-20T11:36:57;5.22;;;2.00;;
52047;SDS011;46904;49.438;8.752;2023-12-20T11:39:22;2.53;;;1.55;;
52047;SDS011;46904;49.438;8.752;2023-12-20T11:41:48;3.28;;;1.55;;
52047;SDS011;46904;49.438;8.752;2023-12-20T11:44:14;3.70;;;1.63;;
52047;SDS011;46904;49.438;8.752;2023-12-20T11:46:42;4.97;;;2.00;;
52047;SDS011;46904;49.438;8.752;2023-12-20T11:49:09;2.72;;;1.90;;
52047;SDS011;46904;49.438;8.752;2023-12-20T11:51:35;4.32;;;2.10;;
52047;SDS011;46904;49.438;8.752;2023-12-20T11:54:00;2.63;;;1.60;;
52047;SDS011;46904;49.438;8.752;2023-12-20T11:56:26;3.13;;;1.85;;
52047;SDS011;46904;49.438;8.752;2023-12-20T11:58:51;2.78;;;1.73;;
52047;SDS011;46904;49.438;8.752;2023-12-20T12:01:19;3.47;;;2.08;;
52047;SDS011;46904;49.438;8.752;2023-12-20T12:03:44;4.13;;;2.05;;
52047;SDS011;46904;49.438;8.752;2023-12-20T12:06:10;3.60;;;1.73;;
52047;SDS011;46904;49.438;8.752;2023-12-20T12:08:35;3.97;;;2.10;;
52047;SDS011;46904;49.438;8.752;2023-12-20T12:11:01;3.90;;;2.10;;
52047;SDS011;46904;49.438;8.752;2023-12-20T12:13:27;5.72;;;1.90;;
52047;SDS011;46904;49.438;8.752;2023-12-20T12:15:53;3.35;;;2.10;;
52047;SDS011;46904;49.438;8.752;2023-12-20T12:18:18;4.32;;;2.17;;
52047;SDS011;46904;49.438;8.752;2023-12-20T12:20:44;4.55;;;2.33;;
52047;SDS011;46904;49.438;8.752;2023-12-20T12:23:09;4.65;;;2.03;;
52047;SDS011;46904;49.438;8.752;2023-12-20T12:25:35;3.10;;;2.00;;
52047;SDS011;46904;49.438;8.752;2023-12-20T12:28:01;3.90;;;1.80;;
52047;SDS011;46904;49.438;8.752;2023-12-20T12:30:27;6.60;;;2.10;;
52047;SDS011;46904;49.438;8.752;2023-12-20T12:32:52;4.07;;;2.08;;
52047;SDS011;46904;49.438;8.752;2023-12-20T12:35:19;3.58;;;1.85;;
52047;SDS011;46904;49.438;8.752;2023-12-20T12:37:44;2.58;;;1.83;;
52047;SDS011;46904;49.438;8.752;2023-12-20T12:40:11;4.20;;;2.30;;
52047;SDS011;46904;49.438;8.752;2023-12-20T12:42:40;6.78;;;2.05;;
52047;SDS011;46904;49.438;8.752;2023-12-20T12:45:06;5.68;;;2.13;;
52047;SDS011;46904;49.438;8.752;2023-12-20T12:47:31;4.97;;;2.60;;
52047;SDS011;46904;49.438;8.752;2023-12-20T12:49:57;3.60;;;1.95;;
52047;SDS011;46904;49.438;8.752;2023-12-20T12:52:23;4.63;;;2.03;;
52047;SDS011;46904;49.438;8.752;2023-12-20T12:54:48;3.08;;;2.10;;
52047;SDS011;46904;49.438;8.752;2023-12-20T12:57:14;4.20;;;1.90;;
52047;SDS011;46904;49.438;8.752;2023-12-20T12:59:40;3.97;;;2.38;;
52047;SDS011;46904;49.438;8.752;2023-12-20T13:02:06;3.72;;;2.60;;
52047;SDS011;46904;49.438;8.752;2023-12-20T13:04:32;4.97;;;2.33;;
52047;SDS011;46904;49.438;8.752;2023-12-20T13:06:57;4.47;;;2.17;;
52047;SDS011;46904;49.438;8.752;2023-12-20T13:09:23;4.72;;;2.45;;
52047;SDS011;46904;49.438;8.752;2023-12-20T13:11:48;3.90;;;2.30;;
52047;SDS011;46904;49.438;8.752;2023-12-20T13:14:14;3.42;;;2.30;;
52047;SDS011;46904;49.438;8.752;2023-12-20T13:16:40;3.72;;;2.30;;
52047;SDS011;46904;49.438;8.752;2023-12-20T13:19:05;4.60;;;2.25;;
52047;SDS011;46904;49.438;8.752;2023-12-20T13:21:31;2.28;;;1.92;;
52047;SDS011;46904;49.438;8.752;2023-12-20T13:23:56;3.72;;;2.00;;
52047;SDS011;46904;49.438;8.752;2023-12-20T13:26:22;3.33;;;2.45;;
52047;SDS011;46904;49.438;8.752;2023-12-20T13:28:47;3.78;;;1.85;;
52047;SDS011;46904;49.438;8.752;2023-12-20T13:31:13;3.00;;;1.88;;
52047;SDS011;46904;49.438;8.752;2023-12-20T13:33:38;4.43;;;2.38;;
52047;SDS011;46904;49.438;8.752;2023-12-20T13:36:04;3.63;;;1.73;;
52047;SDS011;46904;49.438;8.752;2023-12-20T13:38:30;4.70;;;2.00;;
52047;SDS011;46904;49.438;8.752;2023-12-20T13:40:55;5.32;;;2.33;;
52047;SDS011;46904;49.438;8.752;2023-12-20T13:43:21;4.32;;;2.20;;
52047;SDS011;46904;49.438;8.752;2023-12-20T13:45:47;3.92;;;2.28;;
52047;SDS011;46904;49.438;8.752;2023-12-20T13:48:13;6.05;;;1.90;;
52047;SDS011;46904;49.438;8.752;2023-12-20T13:50:38;3.28;;;2.00;;
52047;SDS011;46904;49.438;8.752;2023-12-20T13:53:04;3.35;;;2.40;;
52047;SDS011;46904;49.438;8.752;2023-12-20T13:55:29;4.00;;;2.00;;
52047;SDS011;46904;49.438;8.752;2023-12-20T13:57:55;4.07;;;2.00;;
52047;SDS011;46904;49.438;8.752;2023-12-20T14:00:21;6.68;;;2.08;;
52047;SDS011;46904;49.438;8.752;2023-12-20T14:02:46;6.82;;;2.38;;
52047;SDS011;46904;49.438;8.752;2023-12-20T14:05:12;4.25;;;2.63;;
52047;SDS011;46904;49.438;8.752;2023-12-20T14:07:37;5.18;;;2.33;;
52047;SDS011;46904;49.438;8.752;2023-12-20T14:10:03;2.17;;;1.80;;
52047;SDS011;46904;49.438;8.752;2023-12-20T14:12:29;2.75;;;1.90;;
52047;SDS011;46904;49.438;8.752;2023-12-20T14:14:54;6.18;;;2.33;;
52047;SDS011;46904;49.438;8.752;2023-12-20T14:17:20;3.13;;;1.95;;
52047;SDS011;46904;49.438;8.752;2023-12-20T14:41:18;5.57;;;2.00;;
52047;SDS011;46904;49.438;8.752;2023-12-20T14:44:10;4.95;;;2.30;;
52047;SDS011;46904;49.438;8.752;2023-12-20T14:47:16;8.13;;;2.50;;
52047;SDS011;46904;49.438;8.752;2023-12-20T14:49:41;5.25;;;2.97;;
52047;SDS011;46904;49.438;8.752;2023-12-20T14:52:19;2.70;;;1.90;;
52047;SDS011;46904;49.438;8.752;2023-12-20T14:57:48;3.53;;;1.98;;
52047;SDS011;46904;49.438;8.752;2023-12-20T15:00:28;3.95;;;2.10;;
52047;SDS011;46904;49.438;8.752;2023-12-20T15:03:15;1.83;;;1.50;;
52047;SDS011;46904;49.438;8.752;2023-12-20T15:05:44;6.03;;;2.03;;
52047;SDS011;46904;49.438;8.752;2023-12-20T15:08:37;3.30;;;1.77;;
52047;SDS011;46904;49.438;8.752;2023-12-20T15:11:07;2.70;;;1.60;;